createdAt,value
2023-03-31T19:57:53.241Z,98.56
2023-03-31T19:58:53.221Z,98.32
2023-03-31T19:59:53.235Z,98.27
2023-03-31T20:00:53.223Z,98.27
2023-03-31T20:01:53.301Z,98.32
2023-03-31T20:02:53.310Z,97.85
2023-03-31T20:03:53.833Z,97.75
2023-03-31T20:04:53.248Z,97.70
2023-03-31T20:05:53.245Z,98.03
2023-03-31T20:06:53.250Z,98.08
2023-03-31T20:07:53.253Z,98.03
2023-03-31T20:08:53.262Z,97.61
2023-03-31T20:09:53.263Z,97.99
2023-03-31T20:10:53.389Z,97.61
2023-03-31T20:11:53.289Z,98.36
2023-03-31T20:12:53.281Z,98.27
2023-03-31T20:13:53.307Z,98.36
2023-03-31T20:14:53.292Z,97.85
2023-03-31T20:15:53.354Z,98.32
2023-03-31T20:16:53.290Z,98.65
2023-03-31T20:17:53.322Z,98.56
2023-03-31T20:18:53.317Z,98.27
2023-03-31T20:19:53.315Z,98.27
2023-03-31T20:20:53.309Z,98.13
2023-03-31T20:21:53.322Z,98.61
2023-03-31T20:22:53.320Z,98.90
2023-03-31T20:23:53.329Z,98.65
2023-03-31T20:24:53.329Z,98.85
2023-03-31T20:25:53.332Z,98.56
2023-03-31T20:26:53.334Z,99.04
2023-03-31T20:27:53.344Z,98.80
2023-03-31T20:28:53.355Z,98.80
2023-03-31T20:29:53.373Z,98.94
2023-03-31T20:30:53.355Z,98.80
2023-03-31T20:31:53.533Z,98.90
2023-03-31T20:32:53.411Z,98.80
2023-03-31T20:33:53.366Z,98.85
2023-03-31T20:34:53.379Z,98.61
2023-03-31T20:35:53.407Z,98.90
2023-03-31T20:36:53.397Z,98.75
2023-03-31T20:37:53.385Z,99.08
2023-03-31T20:38:53.456Z,98.80
2023-03-31T20:39:53.397Z,98.65
2023-03-31T20:40:53.401Z,98.65
2023-03-31T20:41:53.408Z,98.70
2023-03-31T20:42:53.409Z,98.70
2023-03-31T20:43:53.419Z,98.80
2023-03-31T20:44:53.425Z,98.80
2023-03-31T20:45:53.455Z,98.75
2023-03-31T20:46:53.496Z,98.80
2023-03-31T20:47:53.511Z,98.80
2023-03-31T20:48:53.468Z,98.90
2023-03-31T20:49:53.446Z,98.75
2023-03-31T20:50:53.450Z,98.90
2023-03-31T20:51:53.459Z,98.80
2023-03-31T20:52:53.458Z,98.70
2023-03-31T20:53:53.476Z,98.94
2023-03-31T20:54:53.480Z,98.99
2023-03-31T20:55:53.473Z,99.37
2023-03-31T20:56:53.551Z,99.13
2023-03-31T20:57:53.495Z,99.13
2023-03-31T20:58:53.502Z,98.94
2023-03-31T20:59:53.508Z,98.90
2023-03-31T21:00:53.554Z,99.04
2023-03-31T21:01:53.525Z,99.37
2023-03-31T21:02:53.523Z,98.85
2023-03-31T21:03:53.550Z,99.04
2023-03-31T21:04:53.526Z,99.08
2023-03-31T21:05:53.522Z,99.18
2023-03-31T21:06:53.533Z,99.18
2023-03-31T21:07:53.539Z,98.90
2023-03-31T21:08:53.558Z,99.08
2023-03-31T21:09:53.547Z,99.18
2023-03-31T21:10:53.552Z,99.18
2023-03-31T21:11:53.551Z,98.99
2023-03-31T21:12:53.557Z,99.18
2023-03-31T21:13:53.567Z,99.08
2023-03-31T21:14:53.565Z,98.80
2023-03-31T21:15:53.578Z,98.80
2023-03-31T21:16:53.623Z,99.37
2023-03-31T21:17:53.699Z,98.90
2023-03-31T21:18:53.595Z,98.80
2023-03-31T21:19:53.604Z,99.08
2023-03-31T21:20:53.599Z,99.08
2023-03-31T21:21:53.608Z,99.18
2023-03-31T21:22:53.614Z,98.90
2023-03-31T21:23:53.638Z,98.90
2023-03-31T21:24:53.619Z,99.18
2023-03-31T21:25:53.622Z,99.18
2023-03-31T21:26:53.638Z,99.18
2023-03-31T21:27:53.655Z,98.61
2023-03-31T21:28:53.668Z,98.90
2023-03-31T21:29:53.648Z,99.18
2023-03-31T21:30:53.657Z,99.08
2023-03-31T21:31:53.697Z,99.08
2023-03-31T21:32:53.677Z,99.46
2023-03-31T21:33:53.709Z,99.46
2023-03-31T21:34:53.670Z,99.66
2023-03-31T21:35:53.693Z,99.37
2023-03-31T21:36:53.682Z,99.75
2023-03-31T21:37:53.695Z,99.75
2023-03-31T21:38:53.702Z,99.75
2023-03-31T21:39:53.703Z,99.75
2023-03-31T21:40:53.715Z,99.75
2023-03-31T21:41:53.714Z,99.75
2023-03-31T21:42:53.712Z,99.27
2023-03-31T21:43:53.723Z,99.56
2023-03-31T21:44:53.722Z,99.46
2023-03-31T21:45:53.736Z,99.18
2023-03-31T21:46:53.734Z,99.46
2023-03-31T21:47:53.761Z,99.56
2023-03-31T21:48:53.744Z,99.66
2023-03-31T21:49:53.773Z,99.56
2023-03-31T21:50:53.759Z,99.46
2023-03-31T21:51:53.765Z,99.56
2023-03-31T21:52:53.763Z,99.27
2023-03-31T21:53:53.766Z,99.56
2023-03-31T21:54:53.784Z,99.56
2023-03-31T21:55:53.778Z,99.56
2023-03-31T21:56:53.815Z,99.46
2023-03-31T21:57:53.786Z,99.56
2023-03-31T21:58:53.806Z,99.27
2023-03-31T21:59:53.805Z,99.75
2023-03-31T22:00:53.801Z,99.46
2023-03-31T22:01:53.866Z,99.56
2023-03-31T22:02:58.245Z,99.46
2023-03-31T22:03:53.822Z,99.56
2023-03-31T22:04:53.885Z,99.56
2023-03-31T22:05:53.852Z,99.66
2023-03-31T22:06:53.840Z,99.75
2023-03-31T22:07:53.852Z,98.90
2023-03-31T22:08:53.840Z,99.08
2023-03-31T22:09:53.856Z,98.80
2023-03-31T22:10:53.850Z,98.99
2023-03-31T22:11:53.860Z,99.18
2023-03-31T22:12:53.858Z,98.70
2023-03-31T22:13:53.872Z,98.70
2023-03-31T22:14:53.877Z,98.61
2023-03-31T22:15:53.925Z,98.80
2023-03-31T22:16:53.879Z,98.80
2023-03-31T22:17:53.993Z,98.90
2023-03-31T22:18:53.890Z,98.90
2023-03-31T22:19:53.894Z,98.70
2023-03-31T22:20:53.907Z,98.70
2023-03-31T22:21:53.935Z,98.70
2023-03-31T22:22:53.912Z,98.90
2023-03-31T22:23:53.915Z,98.90
2023-03-31T22:24:53.931Z,98.70
2023-03-31T22:25:53.926Z,98.70
2023-03-31T22:26:53.967Z,98.90
2023-03-31T22:27:53.938Z,98.90
2023-03-31T22:28:53.945Z,98.70
2023-03-31T22:29:53.956Z,98.99
2023-03-31T22:30:53.955Z,98.90
2023-03-31T22:31:53.995Z,98.99
2023-03-31T22:32:54.041Z,98.99
2023-03-31T22:33:53.979Z,98.51
2023-03-31T22:34:53.974Z,98.85
2023-03-31T22:35:54.019Z,98.94
2023-03-31T22:36:53.977Z,98.70
2023-03-31T22:37:54.014Z,98.65
2023-03-31T22:38:53.988Z,98.65
2023-03-31T22:39:53.998Z,98.70
2023-03-31T22:40:53.999Z,98.61
2023-03-31T22:41:54.017Z,98.94
2023-03-31T22:42:54.013Z,98.94
2023-03-31T22:43:54.011Z,98.80
2023-03-31T22:44:54.016Z,99.13
2023-03-31T22:45:54.028Z,98.75
2023-03-31T22:46:54.068Z,98.75
2023-03-31T22:47:54.084Z,99.04
2023-03-31T22:48:54.033Z,98.75
2023-03-31T22:49:54.041Z,98.85
2023-03-31T22:50:54.054Z,99.70
2023-03-31T22:51:54.050Z,99.32
2023-03-31T22:52:54.061Z,99.41
2023-03-31T22:53:54.089Z,99.22
2023-03-31T22:54:54.070Z,99.41
2023-03-31T22:55:54.769Z,99.70
2023-03-31T22:56:54.094Z,99.22
2023-03-31T22:57:54.096Z,99.51
2023-03-31T22:58:54.085Z,99.51
2023-03-31T22:59:54.087Z,99.41
2023-03-31T23:00:54.122Z,99.32
2023-03-31T23:01:54.100Z,99.32
2023-03-31T23:02:54.141Z,99.51
2023-03-31T23:03:54.198Z,99.13
2023-03-31T23:04:54.117Z,99.51
2023-03-31T23:05:54.138Z,99.32
2023-03-31T23:06:54.132Z,99.04
2023-03-31T23:07:54.138Z,99.13
2023-03-31T23:08:54.143Z,98.94
2023-03-31T23:09:54.162Z,99.70
2023-03-31T23:10:54.152Z,99.60
2023-03-31T23:11:54.157Z,99.51
2023-03-31T23:12:54.188Z,99.13
2023-03-31T23:13:54.161Z,99.51
2023-03-31T23:14:54.168Z,99.70
2023-03-31T23:15:54.167Z,99.51
2023-03-31T23:16:54.236Z,99.13
2023-03-31T23:17:54.229Z,99.70
2023-03-31T23:18:54.190Z,99.13
2023-03-31T23:19:54.188Z,99.51
2023-03-31T23:20:54.199Z,99.99
2023-03-31T23:21:54.208Z,99.89
2023-03-31T23:22:54.214Z,99.51
2023-03-31T23:23:54.213Z,99.89
2023-03-31T23:24:54.219Z,99.70
2023-03-31T23:25:54.258Z,99.70
2023-03-31T23:26:54.228Z,99.60
2023-03-31T23:27:54.234Z,99.89
2023-03-31T23:28:54.235Z,99.60
2023-03-31T23:29:54.249Z,99.70
2023-03-31T23:30:54.250Z,99.80
2023-03-31T23:31:54.318Z,99.70
2023-03-31T23:32:55.255Z,99.80
2023-03-31T23:33:54.256Z,99.80
2023-03-31T23:34:54.264Z,99.89
2023-03-31T23:35:54.300Z,99.99
2023-03-31T23:36:54.268Z,99.99
2023-03-31T23:37:54.326Z,99.99
2023-03-31T23:38:54.289Z,99.99
2023-03-31T23:39:54.290Z,99.99
2023-03-31T23:40:54.286Z,99.89
2023-03-31T23:41:54.311Z,99.89
2023-03-31T23:42:54.298Z,99.99
2023-03-31T23:43:54.301Z,99.89
2023-03-31T23:44:54.305Z,99.99
2023-03-31T23:45:54.371Z,99.99
2023-03-31T23:46:54.312Z,99.80
2023-03-31T23:47:54.370Z,99.89
2023-03-31T23:48:54.323Z,99.89
2023-03-31T23:49:54.328Z,99.89
2023-03-31T23:50:54.336Z,99.99
2023-03-31T23:51:54.346Z,99.99
2023-03-31T23:52:54.340Z,99.99
2023-03-31T23:53:54.354Z,99.99
2023-03-31T23:54:54.373Z,99.99
2023-03-31T23:55:54.364Z,99.99
2023-03-31T23:56:54.406Z,99.99
2023-03-31T23:57:54.393Z,99.99
2023-03-31T23:58:54.377Z,99.99
2023-03-31T23:59:54.384Z,99.99
